sensor_id;sensor_type;location;lat;lon;timestamp;P1;durP1;ratioP1;P2;durP2;ratioP2
67378;SDS011;54262;44.642;-0.974;2022-10-20T00:00:03;6.40;;;3.80;;
67378;SDS011;54262;44.642;-0.974;2022-10-20T00:02:30;4.30;;;4.00;;
67378;SDS011;54262;44.642;-0.974;2022-10-20T00:04:56;5.10;;;3.60;;
67378;SDS011;54262;44.642;-0.974;2022-10-20T00:07:22;4.93;;;3.92;;
67378;SDS011;54262;44.642;-0.974;2022-10-20T00:09:48;5.07;;;4.05;;
67378;SDS011;54262;44.642;-0.974;2022-10-20T00:12:14;8.15;;;4.38;;
67378;SDS011;54262;44.642;-0.974;2022-10-20T00:14:40;5.72;;;4.32;;
67378;SDS011;54262;44.642;-0.974;2022-10-20T00:17:06;4.03;;;3.70;;
67378;SDS011;54262;44.642;-0.974;2022-10-20T00:19:32;7.35;;;3.92;;
67378;SDS011;54262;44.642;-0.974;2022-10-20T00:21:59;7.47;;;4.03;;
67378;SDS011;54262;44.642;-0.974;2022-10-20T00:24:25;3.78;;;3.47;;
67378;SDS011;54262;44.642;-0.974;2022-10-20T00:26:51;5.70;;;3.83;;
67378;SDS011;54262;44.642;-0.974;2022-10-20T00:29:17;3.85;;;3.45;;
67378;SDS011;54262;44.642;-0.974;2022-10-20T00:31:43;13.15;;;4.03;;
67378;SDS011;54262;44.642;-0.974;2022-10-20T00:34:09;6.32;;;4.03;;
67378;SDS011;54262;44.642;-0.974;2022-10-20T00:36:36;7.20;;;3.67;;
67378;SDS011;54262;44.642;-0.974;2022-10-20T00:39:03;7.57;;;3.53;;
67378;SDS011;54262;44.642;-0.974;2022-10-20T00:41:29;5.22;;;3.25;;
67378;SDS011;54262;44.642;-0.974;2022-10-20T00:46:29;3.47;;;3.17;;
67378;SDS011;54262;44.642;-0.974;2022-10-20T00:48:57;6.13;;;2.65;;
67378;SDS011;54262;44.642;-0.974;2022-10-20T00:51:25;3.60;;;2.95;;
67378;SDS011;54262;44.642;-0.974;2022-10-20T00:53:51;5.78;;;2.42;;
67378;SDS011;54262;44.642;-0.974;2022-10-20T00:56:19;3.58;;;2.85;;
67378;SDS011;54262;44.642;-0.974;2022-10-20T00:58:45;8.52;;;2.63;;
67378;SDS011;54262;44.642;-0.974;2022-10-20T01:01:12;4.75;;;3.53;;
67378;SDS011;54262;44.642;-0.974;2022-10-20T01:03:40;2.67;;;2.47;;
67378;SDS011;54262;44.642;-0.974;2022-10-20T01:06:09;5.63;;;2.50;;
67378;SDS011;54262;44.642;-0.974;2022-10-20T01:08:35;3.42;;;2.53;;
67378;SDS011;54262;44.642;-0.974;2022-10-20T01:16:21;6.07;;;2.25;;
67378;SDS011;54262;44.642;-0.974;2022-10-20T01:32:20;2.95;;;2.15;;
67378;SDS011;54262;44.642;-0.974;2022-10-20T01:34:28;4.63;;;2.53;;
67378;SDS011;54262;44.642;-0.974;2022-10-20T01:36:58;2.15;;;2.05;;
67378;SDS011;54262;44.642;-0.974;2022-10-20T01:41:52;3.33;;;2.83;;
67378;SDS011;54262;44.642;-0.974;2022-10-20T01:44:19;4.93;;;2.28;;
67378;SDS011;54262;44.642;-0.974;2022-10-20T01:46:47;2.95;;;2.53;;
67378;SDS011;54262;44.642;-0.974;2022-10-20T01:49:13;7.43;;;2.78;;
67378;SDS011;54262;44.642;-0.974;2022-10-20T01:51:40;2.60;;;2.40;;
67378;SDS011;54262;44.642;-0.974;2022-10-20T01:54:06;2.30;;;2.10;;
67378;SDS011;54262;44.642;-0.974;2022-10-20T01:56:36;2.28;;;2.17;;
67378;SDS011;54262;44.642;-0.974;2022-10-20T01:59:05;5.05;;;2.25;;
67378;SDS011;54262;44.642;-0.974;2022-10-20T02:01:42;5.25;;;2.75;;
67378;SDS011;54262;44.642;-0.974;2022-10-20T02:09:33;3.53;;;2.55;;
67378;SDS011;54262;44.642;-0.974;2022-10-20T02:12:08;5.60;;;2.40;;
67378;SDS011;54262;44.642;-0.974;2022-10-20T02:14:35;3.00;;;2.38;;
67378;SDS011;54262;44.642;-0.974;2022-10-20T02:17:03;3.95;;;2.72;;
67378;SDS011;54262;44.642;-0.974;2022-10-20T02:19:31;2.28;;;2.17;;
67378;SDS011;54262;44.642;-0.974;2022-10-20T02:21:58;2.63;;;2.40;;
67378;SDS011;54262;44.642;-0.974;2022-10-20T02:24:28;2.25;;;2.05;;
67378;SDS011;54262;44.642;-0.974;2022-10-20T02:26:55;2.80;;;2.30;;
67378;SDS011;54262;44.642;-0.974;2022-10-20T02:29:27;2.25;;;2.05;;
67378;SDS011;54262;44.642;-0.974;2022-10-20T02:31:54;3.58;;;2.38;;
67378;SDS011;54262;44.642;-0.974;2022-10-20T02:34:24;1.80;;;1.67;;
67378;SDS011;54262;44.642;-0.974;2022-10-20T02:36:53;4.82;;;2.28;;
67378;SDS011;54262;44.642;-0.974;2022-10-20T02:39:20;3.05;;;2.30;;
67378;SDS011;54262;44.642;-0.974;2022-10-20T02:41:46;2.63;;;2.25;;
67378;SDS011;54262;44.642;-0.974;2022-10-20T02:44:12;3.15;;;2.05;;
67378;SDS011;54262;44.642;-0.974;2022-10-20T02:46:38;2.80;;;2.20;;
67378;SDS011;54262;44.642;-0.974;2022-10-20T02:49:04;4.18;;;2.63;;
67378;SDS011;54262;44.642;-0.974;2022-10-20T02:51:30;4.45;;;2.33;;
67378;SDS011;54262;44.642;-0.974;2022-10-20T02:53:56;2.65;;;1.92;;
67378;SDS011;54262;44.642;-0.974;2022-10-20T02:56:22;4.90;;;2.55;;
67378;SDS011;54262;44.642;-0.974;2022-10-20T02:58:48;2.75;;;2.30;;
67378;SDS011;54262;44.642;-0.974;2022-10-20T03:01:15;2.00;;;1.80;;
67378;SDS011;54262;44.642;-0.974;2022-10-20T03:03:41;3.83;;;2.33;;
67378;SDS011;54262;44.642;-0.974;2022-10-20T03:06:08;2.30;;;2.10;;
67378;SDS011;54262;44.642;-0.974;2022-10-20T03:08:34;7.10;;;1.98;;
67378;SDS011;54262;44.642;-0.974;2022-10-20T03:11:01;2.83;;;2.10;;
67378;SDS011;54262;44.642;-0.974;2022-10-20T03:13:27;2.45;;;1.80;;
67378;SDS011;54262;44.642;-0.974;2022-10-20T03:15:53;2.60;;;2.40;;
67378;SDS011;54262;44.642;-0.974;2022-10-20T03:18:19;3.35;;;2.13;;
67378;SDS011;54262;44.642;-0.974;2022-10-20T03:20:45;2.75;;;2.53;;
67378;SDS011;54262;44.642;-0.974;2022-10-20T03:23:11;3.45;;;2.13;;
67378;SDS011;54262;44.642;-0.974;2022-10-20T03:25:37;2.92;;;2.20;;
67378;SDS011;54262;44.642;-0.974;2022-10-20T03:28:03;5.72;;;2.08;;
67378;SDS011;54262;44.642;-0.974;2022-10-20T03:30:30;1.70;;;1.60;;
67378;SDS011;54262;44.642;-0.974;2022-10-20T03:32:56;3.83;;;2.28;;
67378;SDS011;54262;44.642;-0.974;2022-10-20T03:35:22;3.20;;;2.10;;
67378;SDS011;54262;44.642;-0.974;2022-10-20T03:37:48;2.78;;;1.80;;
67378;SDS011;54262;44.642;-0.974;2022-10-20T03:40:14;2.38;;;2.17;;
67378;SDS011;54262;44.642;-0.974;2022-10-20T03:42:40;2.42;;;2.13;;
67378;SDS011;54262;44.642;-0.974;2022-10-20T03:45:06;3.88;;;2.17;;
67378;SDS011;54262;44.642;-0.974;2022-10-20T03:47:32;3.40;;;1.98;;
67378;SDS011;54262;44.642;-0.974;2022-10-20T03:49:59;6.32;;;1.95;;
67378;SDS011;54262;44.642;-0.974;2022-10-20T03:52:25;4.50;;;1.50;;
67378;SDS011;54262;44.642;-0.974;2022-10-20T03:54:51;2.15;;;1.88;;
67378;SDS011;54262;44.642;-0.974;2022-10-20T03:57:17;3.15;;;1.77;;
67378;SDS011;54262;44.642;-0.974;2022-10-20T03:59:44;4.03;;;2.05;;
67378;SDS011;54262;44.642;-0.974;2022-10-20T04:02:21;8.38;;;2.35;;
67378;SDS011;54262;44.642;-0.974;2022-10-20T04:04:47;5.43;;;2.05;;
67378;SDS011;54262;44.642;-0.974;2022-10-20T04:07:13;2.80;;;1.70;;
67378;SDS011;54262;44.642;-0.974;2022-10-20T04:09:39;3.03;;;2.28;;
67378;SDS011;54262;44.642;-0.974;2022-10-20T04:12:05;4.82;;;1.70;;
67378;SDS011;54262;44.642;-0.974;2022-10-20T04:14:32;2.47;;;1.92;;
67378;SDS011;54262;44.642;-0.974;2022-10-20T04:16:58;3.10;;;2.03;;
67378;SDS011;54262;44.642;-0.974;2022-10-20T04:19:24;3.55;;;2.25;;
67378;SDS011;54262;44.642;-0.974;2022-10-20T04:21:50;4.30;;;2.10;;
67378;SDS011;54262;44.642;-0.974;2022-10-20T04:24:16;2.17;;;1.98;;
67378;SDS011;54262;44.642;-0.974;2022-10-20T04:26:42;2.75;;;1.75;;
67378;SDS011;54262;44.642;-0.974;2022-10-20T04:29:08;4.55;;;2.63;;
67378;SDS011;54262;44.642;-0.974;2022-10-20T04:31:34;4.93;;;1.80;;
67378;SDS011;54262;44.642;-0.974;2022-10-20T04:34:00;3.83;;;2.13;;
67378;SDS011;54262;44.642;-0.974;2022-10-20T04:36:26;3.42;;;1.67;;
67378;SDS011;54262;44.642;-0.974;2022-10-20T04:38:52;2.17;;;1.98;;
67378;SDS011;54262;44.642;-0.974;2022-10-20T04:41:18;7.38;;;2.08;;
67378;SDS011;54262;44.642;-0.974;2022-10-20T04:43:48;1.95;;;1.73;;
67378;SDS011;54262;44.642;-0.974;2022-10-20T04:46:15;3.53;;;2.22;;
67378;SDS011;54262;44.642;-0.974;2022-10-20T04:48:41;9.48;;;1.92;;
67378;SDS011;54262;44.642;-0.974;2022-10-20T04:51:11;4.38;;;2.15;;
67378;SDS011;54262;44.642;-0.974;2022-10-20T04:53:38;3.38;;;2.08;;
67378;SDS011;54262;44.642;-0.974;2022-10-20T04:56:05;3.83;;;2.20;;
67378;SDS011;54262;44.642;-0.974;2022-10-20T04:58:32;5.30;;;2.08;;
67378;SDS011;54262;44.642;-0.974;2022-10-20T05:01:06;3.45;;;1.92;;
67378;SDS011;54262;44.642;-0.974;2022-10-20T05:03:33;2.10;;;1.70;;
67378;SDS011;54262;44.642;-0.974;2022-10-20T05:06:12;2.13;;;2.03;;
67378;SDS011;54262;44.642;-0.974;2022-10-20T05:08:40;6.07;;;1.95;;
67378;SDS011;54262;44.642;-0.974;2022-10-20T05:11:07;2.75;;;1.83;;
67378;SDS011;54262;44.642;-0.974;2022-10-20T05:13:34;4.70;;;2.42;;
67378;SDS011;54262;44.642;-0.974;2022-10-20T05:16:00;7.50;;;3.78;;
67378;SDS011;54262;44.642;-0.974;2022-10-20T05:18:26;5.28;;;3.50;;
67378;SDS011;54262;44.642;-0.974;2022-10-20T05:20:52;2.65;;;2.42;;
67378;SDS011;54262;44.642;-0.974;2022-10-20T05:23:19;2.17;;;1.98;;
67378;SDS011;54262;44.642;-0.974;2022-10-20T05:25:45;4.20;;;2.65;;
67378;SDS011;54262;44.642;-0.974;2022-10-20T05:28:11;2.20;;;2.00;;
67378;SDS011;54262;44.642;-0.974;2022-10-20T05:30:37;4.88;;;1.95;;
67378;SDS011;54262;44.642;-0.974;2022-10-20T05:33:03;3.55;;;2.10;;
67378;SDS011;54262;44.642;-0.974;2022-10-20T05:35:29;5.40;;;2.58;;
67378;SDS011;54262;44.642;-0.974;2022-10-20T05:37:56;4.50;;;2.40;;
67378;SDS011;54262;44.642;-0.974;2022-10-20T05:40:22;4.25;;;1.85;;
67378;SDS011;54262;44.642;-0.974;2022-10-20T05:42:48;3.03;;;2.50;;
67378;SDS011;54262;44.642;-0.974;2022-10-20T05:45:14;2.63;;;2.03;;
67378;SDS011;54262;44.642;-0.974;2022-10-20T05:47:40;5.40;;;2.45;;
67378;SDS011;54262;44.642;-0.974;2022-10-20T05:50:07;5.40;;;2.75;;
67378;SDS011;54262;44.642;-0.974;2022-10-20T05:52:33;8.65;;;2.45;;
67378;SDS011;54262;44.642;-0.974;2022-10-20T05:55:00;2.40;;;2.20;;
67378;SDS011;54262;44.642;-0.974;2022-10-20T05:57:26;6.50;;;3.72;;
67378;SDS011;54262;44.642;-0.974;2022-10-20T05:59:52;2.92;;;2.20;;
67378;SDS011;54262;44.642;-0.974;2022-10-20T06:02:18;3.40;;;2.40;;
67378;SDS011;54262;44.642;-0.974;2022-10-20T06:04:45;6.53;;;3.15;;
67378;SDS011;54262;44.642;-0.974;2022-10-20T06:07:11;3.78;;;2.53;;
67378;SDS011;54262;44.642;-0.974;2022-10-20T06:09:37;3.03;;;2.10;;
67378;SDS011;54262;44.642;-0.974;2022-10-20T06:12:04;2.03;;;1.83;;
67378;SDS011;54262;44.642;-0.974;2022-10-20T06:14:30;8.23;;;3.10;;
67378;SDS011;54262;44.642;-0.974;2022-10-20T06:16:56;8.18;;;3.05;;
67378;SDS011;54262;44.642;-0.974;2022-10-20T06:19:23;3.00;;;2.00;;
67378;SDS011;54262;44.642;-0.974;2022-10-20T06:21:50;6.07;;;2.40;;
67378;SDS011;54262;44.642;-0.974;2022-10-20T06:24:17;10.18;;;2.33;;
67378;SDS011;54262;44.642;-0.974;2022-10-20T06:26:43;3.58;;;2.50;;
67378;SDS011;54262;44.642;-0.974;2022-10-20T06:29:10;6.13;;;2.83;;
67378;SDS011;54262;44.642;-0.974;2022-10-20T06:31:38;2.88;;;2.67;;
67378;SDS011;54262;44.642;-0.974;2022-10-20T06:34:09;10.65;;;2.60;;
67378;SDS011;54262;44.642;-0.974;2022-10-20T06:36:37;4.40;;;2.33;;
67378;SDS011;54262;44.642;-0.974;2022-10-20T06:39:04;5.75;;;2.20;;
67378;SDS011;54262;44.642;-0.974;2022-10-20T06:41:30;12.57;;;4.05;;
67378;SDS011;54262;44.642;-0.974;2022-10-20T06:43:57;7.72;;;3.00;;
67378;SDS011;54262;44.642;-0.974;2022-10-20T06:46:24;4.20;;;2.47;;
67378;SDS011;54262;44.642;-0.974;2022-10-20T06:48:51;8.80;;;3.00;;
67378;SDS011;54262;44.642;-0.974;2022-10-20T06:51:17;7.43;;;3.28;;
67378;SDS011;54262;44.642;-0.974;2022-10-20T06:53:45;4.13;;;3.03;;
67378;SDS011;54262;44.642;-0.974;2022-10-20T06:56:18;9.88;;;3.03;;
67378;SDS011;54262;44.642;-0.974;2022-10-20T06:58:46;5.25;;;3.30;;
67378;SDS011;54262;44.642;-0.974;2022-10-20T07:01:14;7.95;;;2.72;;
67378;SDS011;54262;44.642;-0.974;2022-10-20T07:03:41;2.90;;;2.47;;
67378;SDS011;54262;44.642;-0.974;2022-10-20T07:06:07;4.72;;;2.20;;
67378;SDS011;54262;44.642;-0.974;2022-10-20T07:08:35;7.93;;;3.13;;
67378;SDS011;54262;44.642;-0.974;2022-10-20T07:11:05;4.45;;;2.85;;
67378;SDS011;54262;44.642;-0.974;2022-10-20T07:13:31;4.82;;;2.35;;
67378;SDS011;54262;44.642;-0.974;2022-10-20T07:15:58;8.20;;;2.90;;
67378;SDS011;54262;44.642;-0.974;2022-10-20T07:18:25;2.55;;;2.35;;
67378;SDS011;54262;44.642;-0.974;2022-10-20T07:20:54;8.50;;;3.80;;
67378;SDS011;54262;44.642;-0.974;2022-10-20T07:23:21;4.47;;;2.78;;
67378;SDS011;54262;44.642;-0.974;2022-10-20T07:25:47;9.02;;;3.00;;
67378;SDS011;54262;44.642;-0.974;2022-10-20T07:28:13;6.07;;;2.10;;
67378;SDS011;54262;44.642;-0.974;2022-10-20T07:30:40;2.80;;;2.38;;
67378;SDS011;54262;44.642;-0.974;2022-10-20T07:33:07;5.90;;;2.28;;
67378;SDS011;54262;44.642;-0.974;2022-10-20T07:35:34;4.68;;;2.80;;
67378;SDS011;54262;44.642;-0.974;2022-10-20T07:38:00;12.65;;;2.97;;
67378;SDS011;54262;44.642;-0.974;2022-10-20T07:40:27;9.25;;;3.05;;
67378;SDS011;54262;44.642;-0.974;2022-10-20T07:42:53;3.47;;;2.38;;
67378;SDS011;54262;44.642;-0.974;2022-10-20T07:45:19;4.85;;;3.42;;
67378;SDS011;54262;44.642;-0.974;2022-10-20T07:47:45;4.97;;;2.50;;
67378;SDS011;54262;44.642;-0.974;2022-10-20T07:50:11;9.57;;;3.13;;
67378;SDS011;54262;44.642;-0.974;2022-10-20T07:52:38;4.63;;;2.22;;
67378;SDS011;54262;44.642;-0.974;2022-10-20T07:55:04;6.25;;;2.58;;
67378;SDS011;54262;44.642;-0.974;2022-10-20T07:57:30;3.92;;;2.53;;
67378;SDS011;54262;44.642;-0.974;2022-10-20T07:59:57;5.70;;;2.25;;
67378;SDS011;54262;44.642;-0.974;2022-10-20T08:02:23;4.53;;;2.28;;
67378;SDS011;54262;44.642;-0.974;2022-10-20T08:04:49;3.65;;;2.60;;
67378;SDS011;54262;44.642;-0.974;2022-10-20T08:07:15;7.47;;;3.25;;
67378;SDS011;54262;44.642;-0.974;2022-10-20T08:09:41;10.02;;;3.53;;
67378;SDS011;54262;44.642;-0.974;2022-10-20T08:12:07;5.78;;;2.60;;
67378;SDS011;54262;44.642;-0.974;2022-10-20T08:14:33;14.55;;;2.90;;
67378;SDS011;54262;44.642;-0.974;2022-10-20T08:17:02;15.60;;;3.25;;
67378;SDS011;54262;44.642;-0.974;2022-10-20T08:19:28;6.72;;;3.25;;
67378;SDS011;54262;44.642;-0.974;2022-10-20T08:21:55;8.48;;;2.72;;
67378;SDS011;54262;44.642;-0.974;2022-10-20T08:24:21;6.93;;;2.60;;
67378;SDS011;54262;44.642;-0.974;2022-10-20T08:26:47;6.00;;;2.83;;
67378;SDS011;54262;44.642;-0.974;2022-10-20T08:29:13;4.75;;;2.63;;
67378;SDS011;54262;44.642;-0.974;2022-10-20T08:31:39;8.30;;;2.90;;
67378;SDS011;54262;44.642;-0.974;2022-10-20T08:34:05;3.80;;;2.30;;
67378;SDS011;54262;44.642;-0.974;2022-10-20T08:36:32;11.70;;;2.65;;
67378;SDS011;54262;44.642;-0.974;2022-10-20T08:38:58;5.72;;;2.72;;
67378;SDS011;54262;44.642;-0.974;2022-10-20T08:41:28;9.13;;;2.75;;
67378;SDS011;54262;44.642;-0.974;2022-10-20T08:43:58;23.63;;;3.47;;
67378;SDS011;54262;44.642;-0.974;2022-10-20T08:46:28;4.90;;;2.42;;
67378;SDS011;54262;44.642;-0.974;2022-10-20T08:48:55;4.53;;;2.58;;
67378;SDS011;54262;44.642;-0.974;2022-10-20T08:51:22;4.90;;;2.90;;
67378;SDS011;54262;44.642;-0.974;2022-10-20T08:53:49;8.35;;;3.08;;
67378;SDS011;54262;44.642;-0.974;2022-10-20T08:56:16;4.50;;;2.53;;
67378;SDS011;54262;44.642;-0.974;2022-10-20T08:58:44;5.55;;;3.00;;
67378;SDS011;54262;44.642;-0.974;2022-10-20T09:01:28;6.85;;;2.63;;
67378;SDS011;54262;44.642;-0.974;2022-10-20T09:04:18;7.82;;;2.83;;
67378;SDS011;54262;44.642;-0.974;2022-10-20T09:06:44;6.80;;;2.80;;
67378;SDS011;54262;44.642;-0.974;2022-10-20T09:09:12;11.60;;;3.00;;
67378;SDS011;54262;44.642;-0.974;2022-10-20T09:11:39;7.63;;;3.28;;
67378;SDS011;54262;44.642;-0.974;2022-10-20T09:14:07;13.35;;;2.88;;
67378;SDS011;54262;44.642;-0.974;2022-10-20T09:16:34;6.25;;;2.92;;
67378;SDS011;54262;44.642;-0.974;2022-10-20T09:19:04;5.32;;;2.53;;
67378;SDS011;54262;44.642;-0.974;2022-10-20T09:21:34;6.72;;;2.50;;
67378;SDS011;54262;44.642;-0.974;2022-10-20T09:24:03;9.25;;;3.30;;
67378;SDS011;54262;44.642;-0.974;2022-10-20T09:29:06;8.00;;;2.83;;
67378;SDS011;54262;44.642;-0.974;2022-10-20T09:31:35;10.75;;;3.28;;
67378;SDS011;54262;44.642;-0.974;2022-10-20T09:34:03;26.88;;;3.67;;
67378;SDS011;54262;44.642;-0.974;2022-10-20T09:36:43;6.80;;;3.38;;
67378;SDS011;54262;44.642;-0.974;2022-10-20T09:39:17;15.93;;;3.13;;
67378;SDS011;54262;44.642;-0.974;2022-10-20T09:41:44;15.20;;;4.07;;
67378;SDS011;54262;44.642;-0.974;2022-10-20T09:44:13;14.75;;;3.53;;
67378;SDS011;54262;44.642;-0.974;2022-10-20T09:46:43;15.48;;;3.55;;
67378;SDS011;54262;44.642;-0.974;2022-10-20T09:51:47;11.02;;;3.70;;
67378;SDS011;54262;44.642;-0.974;2022-10-20T09:54:14;19.08;;;3.92;;
67378;SDS011;54262;44.642;-0.974;2022-10-20T09:56:42;6.97;;;3.10;;
67378;SDS011;54262;44.642;-0.974;2022-10-20T09:59:28;20.58;;;3.38;;
67378;SDS011;54262;44.642;-0.974;2022-10-20T10:01:57;3.60;;;2.95;;
67378;SDS011;54262;44.642;-0.974;2022-10-20T10:04:31;12.77;;;3.63;;
67378;SDS011;54262;44.642;-0.974;2022-10-20T10:06:57;16.15;;;2.92;;
67378;SDS011;54262;44.642;-0.974;2022-10-20T10:09:25;15.70;;;3.35;;
67378;SDS011;54262;44.642;-0.974;2022-10-20T10:12:26;9.00;;;3.45;;
67378;SDS011;54262;44.642;-0.974;2022-10-20T10:14:51;9.70;;;3.42;;
67378;SDS011;54262;44.642;-0.974;2022-10-20T10:17:31;9.27;;;3.17;;
67378;SDS011;54262;44.642;-0.974;2022-10-20T10:19:58;22.80;;;4.25;;
67378;SDS011;54262;44.642;-0.974;2022-10-20T10:22:24;9.63;;;3.10;;
67378;SDS011;54262;44.642;-0.974;2022-10-20T10:24:51;16.35;;;3.35;;
67378;SDS011;54262;44.642;-0.974;2022-10-20T10:29:45;7.40;;;3.80;;
67378;SDS011;54262;44.642;-0.974;2022-10-20T10:37:04;9.60;;;3.15;;
67378;SDS011;54262;44.642;-0.974;2022-10-20T10:39:31;8.85;;;2.50;;
67378;SDS011;54262;44.642;-0.974;2022-10-20T10:42:16;7.20;;;2.97;;
67378;SDS011;54262;44.642;-0.974;2022-10-20T10:55:25;3.33;;;2.40;;
67378;SDS011;54262;44.642;-0.974;2022-10-20T11:13:42;3.78;;;3.13;;
67378;SDS011;54262;44.642;-0.974;2022-10-20T11:26:35;10.85;;;3.15;;
67378;SDS011;54262;44.642;-0.974;2022-10-20T11:29:03;5.28;;;2.97;;
67378;SDS011;54262;44.642;-0.974;2022-10-20T11:31:31;13.63;;;9.02;;
67378;SDS011;54262;44.642;-0.974;2022-10-20T11:34:13;7.93;;;3.92;;
67378;SDS011;54262;44.642;-0.974;2022-10-20T11:36:41;5.38;;;3.20;;
67378;SDS011;54262;44.642;-0.974;2022-10-20T11:44:58;10.90;;;3.63;;
67378;SDS011;54262;44.642;-0.974;2022-10-20T11:47:35;6.47;;;3.28;;
67378;SDS011;54262;44.642;-0.974;2022-10-20T11:50:06;10.32;;;3.25;;
67378;SDS011;54262;44.642;-0.974;2022-10-20T12:00:32;18.83;;;3.67;;
67378;SDS011;54262;44.642;-0.974;2022-10-20T12:03:12;11.85;;;3.90;;
67378;SDS011;54262;44.642;-0.974;2022-10-20T12:09:13;16.75;;;4.05;;
67378;SDS011;54262;44.642;-0.974;2022-10-20T12:13:36;13.60;;;3.67;;
67378;SDS011;54262;44.642;-0.974;2022-10-20T12:16:03;10.20;;;3.80;;
67378;SDS011;54262;44.642;-0.974;2022-10-20T12:18:30;7.57;;;3.80;;
67378;SDS011;54262;44.642;-0.974;2022-10-20T12:24:27;11.43;;;3.58;;
67378;SDS011;54262;44.642;-0.974;2022-10-20T12:29:00;15.50;;;4.28;;
67378;SDS011;54262;44.642;-0.974;2022-10-20T12:34:37;24.33;;;4.75;;
67378;SDS011;54262;44.642;-0.974;2022-10-20T12:37:34;22.10;;;6.63;;
67378;SDS011;54262;44.642;-0.974;2022-10-20T12:39:58;33.28;;;7.65;;
67378;SDS011;54262;44.642;-0.974;2022-10-20T12:42:27;56.38;;;7.95;;
67378;SDS011;54262;44.642;-0.974;2022-10-20T12:44:54;33.15;;;6.32;;
67378;SDS011;54262;44.642;-0.974;2022-10-20T12:47:25;46.72;;;7.57;;
67378;SDS011;54262;44.642;-0.974;2022-10-20T12:49:56;39.30;;;9.35;;
67378;SDS011;54262;44.642;-0.974;2022-10-20T12:52:29;58.45;;;8.35;;
67378;SDS011;54262;44.642;-0.974;2022-10-20T12:57:41;44.17;;;8.90;;
67378;SDS011;54262;44.642;-0.974;2022-10-20T13:17:57;23.15;;;5.78;;
67378;SDS011;54262;44.642;-0.974;2022-10-20T13:20:28;29.83;;;7.05;;
67378;SDS011;54262;44.642;-0.974;2022-10-20T13:22:54;25.83;;;5.57;;
67378;SDS011;54262;44.642;-0.974;2022-10-20T13:28:11;27.45;;;5.60;;
67378;SDS011;54262;44.642;-0.974;2022-10-20T13:39:07;37.95;;;4.65;;
67378;SDS011;54262;44.642;-0.974;2022-10-20T13:41:43;28.25;;;4.50;;
67378;SDS011;54262;44.642;-0.974;2022-10-20T13:44:17;26.10;;;4.10;;
67378;SDS011;54262;44.642;-0.974;2022-10-20T13:51:55;14.15;;;4.22;;
67378;SDS011;54262;44.642;-0.974;2022-10-20T13:54:23;19.30;;;3.53;;
67378;SDS011;54262;44.642;-0.974;2022-10-20T13:56:50;12.80;;;2.88;;
67378;SDS011;54262;44.642;-0.974;2022-10-20T13:59:18;13.18;;;3.03;;
67378;SDS011;54262;44.642;-0.974;2022-10-20T14:01:47;16.40;;;3.05;;
67378;SDS011;54262;44.642;-0.974;2022-10-20T14:04:24;15.52;;;3.20;;
67378;SDS011;54262;44.642;-0.974;2022-10-20T14:06:50;11.70;;;2.60;;
67378;SDS011;54262;44.642;-0.974;2022-10-20T14:09:18;21.67;;;3.30;;
67378;SDS011;54262;44.642;-0.974;2022-10-20T14:11:46;7.85;;;2.92;;
67378;SDS011;54262;44.642;-0.974;2022-10-20T14:14:13;23.17;;;3.22;;
67378;SDS011;54262;44.642;-0.974;2022-10-20T14:16:40;13.75;;;2.55;;
67378;SDS011;54262;44.642;-0.974;2022-10-20T14:19:11;13.52;;;2.75;;
67378;SDS011;54262;44.642;-0.974;2022-10-20T14:21:40;20.73;;;3.40;;
67378;SDS011;54262;44.642;-0.974;2022-10-20T14:24:09;12.82;;;2.75;;
67378;SDS011;54262;44.642;-0.974;2022-10-20T14:26:37;13.00;;;2.33;;
67378;SDS011;54262;44.642;-0.974;2022-10-20T14:29:07;12.77;;;2.40;;
67378;SDS011;54262;44.642;-0.974;2022-10-20T14:31:35;15.35;;;2.72;;
67378;SDS011;54262;44.642;-0.974;2022-10-20T14:34:01;12.93;;;2.97;;
67378;SDS011;54262;44.642;-0.974;2022-10-20T14:36:27;16.85;;;2.63;;
67378;SDS011;54262;44.642;-0.974;2022-10-20T14:38:55;9.75;;;2.20;;
67378;SDS011;54262;44.642;-0.974;2022-10-20T14:41:23;18.75;;;2.45;;
67378;SDS011;54262;44.642;-0.974;2022-10-20T14:43:50;19.02;;;2.30;;
67378;SDS011;54262;44.642;-0.974;2022-10-20T14:48:57;17.13;;;2.78;;
67378;SDS011;54262;44.642;-0.974;2022-10-20T14:54:22;5.90;;;2.38;;
67378;SDS011;54262;44.642;-0.974;2022-10-20T14:59:16;24.17;;;2.58;;
67378;SDS011;54262;44.642;-0.974;2022-10-20T15:04:32;23.23;;;3.38;;
67378;SDS011;54262;44.642;-0.974;2022-10-20T15:07:40;23.38;;;2.65;;
67378;SDS011;54262;44.642;-0.974;2022-10-20T15:12:17;14.25;;;2.70;;
67378;SDS011;54262;44.642;-0.974;2022-10-20T15:14:58;14.65;;;3.50;;
67378;SDS011;54262;44.642;-0.974;2022-10-20T15:17:34;18.40;;;3.38;;
67378;SDS011;54262;44.642;-0.974;2022-10-20T15:22:45;7.40;;;2.72;;
67378;SDS011;54262;44.642;-0.974;2022-10-20T15:25:11;24.85;;;3.35;;
67378;SDS011;54262;44.642;-0.974;2022-10-20T15:27:38;16.10;;;3.15;;
67378;SDS011;54262;44.642;-0.974;2022-10-20T15:30:12;7.75;;;2.85;;
67378;SDS011;54262;44.642;-0.974;2022-10-20T15:32:40;12.77;;;2.47;;
67378;SDS011;54262;44.642;-0.974;2022-10-20T15:35:10;9.50;;;2.72;;
67378;SDS011;54262;44.642;-0.974;2022-10-20T15:37:36;16.83;;;2.80;;
67378;SDS011;54262;44.642;-0.974;2022-10-20T15:40:02;8.75;;;2.00;;
67378;SDS011;54262;44.642;-0.974;2022-10-20T15:42:29;22.02;;;3.53;;
67378;SDS011;54262;44.642;-0.974;2022-10-20T15:44:55;9.13;;;2.60;;
67378;SDS011;54262;44.642;-0.974;2022-10-20T15:47:21;11.23;;;2.95;;
67378;SDS011;54262;44.642;-0.974;2022-10-20T15:49:47;15.55;;;3.22;;
67378;SDS011;54262;44.642;-0.974;2022-10-20T15:52:13;17.10;;;3.15;;
67378;SDS011;54262;44.642;-0.974;2022-10-20T15:54:39;21.42;;;3.45;;
67378;SDS011;54262;44.642;-0.974;2022-10-20T15:57:05;18.98;;;3.28;;
67378;SDS011;54262;44.642;-0.974;2022-10-20T15:59:31;16.75;;;2.97;;
67378;SDS011;54262;44.642;-0.974;2022-10-20T16:01:57;13.45;;;3.90;;
67378;SDS011;54262;44.642;-0.974;2022-10-20T16:04:24;14.95;;;2.88;;
67378;SDS011;54262;44.642;-0.974;2022-10-20T16:06:51;21.23;;;2.78;;
67378;SDS011;54262;44.642;-0.974;2022-10-20T16:09:18;18.08;;;2.92;;
67378;SDS011;54262;44.642;-0.974;2022-10-20T16:11:45;15.98;;;2.80;;
67378;SDS011;54262;44.642;-0.974;2022-10-20T16:14:11;19.33;;;3.40;;
67378;SDS011;54262;44.642;-0.974;2022-10-20T16:16:39;13.90;;;3.65;;
67378;SDS011;54262;44.642;-0.974;2022-10-20T16:19:05;12.43;;;3.08;;
67378;SDS011;54262;44.642;-0.974;2022-10-20T16:21:32;9.45;;;4.00;;
67378;SDS011;54262;44.642;-0.974;2022-10-20T16:23:58;7.25;;;3.05;;
67378;SDS011;54262;44.642;-0.974;2022-10-20T16:26:25;4.85;;;2.65;;
67378;SDS011;54262;44.642;-0.974;2022-10-20T16:28:51;13.30;;;2.72;;
67378;SDS011;54262;44.642;-0.974;2022-10-20T16:31:17;11.57;;;3.65;;
67378;SDS011;54262;44.642;-0.974;2022-10-20T16:33:44;9.57;;;3.33;;
67378;SDS011;54262;44.642;-0.974;2022-10-20T16:36:11;4.85;;;2.30;;
67378;SDS011;54262;44.642;-0.974;2022-10-20T16:38:39;16.30;;;2.70;;
67378;SDS011;54262;44.642;-0.974;2022-10-20T16:41:06;6.43;;;2.80;;
67378;SDS011;54262;44.642;-0.974;2022-10-20T16:43:36;20.27;;;3.75;;
67378;SDS011;54262;44.642;-0.974;2022-10-20T16:46:03;9.60;;;2.70;;
67378;SDS011;54262;44.642;-0.974;2022-10-20T16:48:29;19.13;;;4.55;;
67378;SDS011;54262;44.642;-0.974;2022-10-20T16:50:55;8.60;;;3.67;;
67378;SDS011;54262;44.642;-0.974;2022-10-20T16:53:22;14.32;;;4.05;;
67378;SDS011;54262;44.642;-0.974;2022-10-20T16:55:52;7.97;;;2.67;;
67378;SDS011;54262;44.642;-0.974;2022-10-20T16:58:18;14.75;;;4.32;;
67378;SDS011;54262;44.642;-0.974;2022-10-20T17:00:44;15.15;;;3.15;;
67378;SDS011;54262;44.642;-0.974;2022-10-20T17:03:11;6.75;;;2.65;;
67378;SDS011;54262;44.642;-0.974;2022-10-20T17:05:37;15.88;;;2.95;;
67378;SDS011;54262;44.642;-0.974;2022-10-20T17:08:03;4.85;;;3.38;;
67378;SDS011;54262;44.642;-0.974;2022-10-20T17:10:29;8.18;;;2.78;;
67378;SDS011;54262;44.642;-0.974;2022-10-20T17:12:55;6.45;;;2.50;;